BAW4244 EGKK-EGCC
Flight info
| Callsign | BAW4244 |
|---|---|
| Flight time | N/A |
| Altitude | 24000 |
| Route | LAM6M LAM N57 WELIN T420 ELVOS ELVOS1M |
| Aircraft | A20N/M-SDE2E3FGHIRWXY/LB1 |
Departure
| Time | 2026-04-14 15:47 |
|---|---|
| Airport | London Gatwick Airport (EGKK) |
Arrival
| Time | N/A |
|---|---|
| Airport | Manchester Airport (EGCC) |
| Time | Latitude | Longitude | Altitude | Speed | Heading |
|---|---|---|---|---|---|
| 2026-04-14 15:23 | 51.15886 | -0.16765 | 204 ft | 0 kts | 209° |
| 2026-04-14 15:38 | 51.15890 | -0.16762 | 214 ft | 4 kts | 209° |
| 2026-04-14 15:38 | 51.15919 | -0.16736 | 210 ft | 5 kts | 210° |
| 2026-04-14 15:38 | 51.15943 | -0.16712 | 215 ft | 2 kts | 229° |
| 2026-04-14 15:38 | 51.15949 | -0.16696 | 211 ft | 2 kts | 283° |
| 2026-04-14 15:39 | 51.15945 | -0.16680 | 207 ft | 2 kts | 300° |
| 2026-04-14 15:39 | 51.15942 | -0.16674 | 206 ft | 0 kts | 301° |
| 2026-04-14 15:40 | 51.15943 | -0.16674 | 206 ft | 0 kts | 300° |
| 2026-04-14 15:41 | 51.15950 | -0.16696 | 210 ft | 7 kts | 297° |
| 2026-04-14 15:41 | 51.15974 | -0.16832 | 210 ft | 19 kts | 269° |
| 2026-04-14 15:42 | 51.15907 | -0.17036 | 207 ft | 23 kts | 213° |
| 2026-04-14 15:42 | 51.15814 | -0.17122 | 207 ft | 11 kts | 251° |
| 2026-04-14 15:42 | 51.15792 | -0.17259 | 209 ft | 15 kts | 258° |
| 2026-04-14 15:42 | 51.15768 | -0.17432 | 207 ft | 17 kts | 257° |
| 2026-04-14 15:43 | 51.15723 | -0.17495 | 205 ft | 7 kts | 177° |
| 2026-04-14 15:43 | 51.15660 | -0.17475 | 207 ft | 11 kts | 166° |
| 2026-04-14 15:43 | 51.15577 | -0.17444 | 213 ft | 13 kts | 168° |
| 2026-04-14 15:43 | 51.15466 | -0.17407 | 209 ft | 19 kts | 168° |
| 2026-04-14 15:44 | 51.15334 | -0.17360 | 205 ft | 16 kts | 167° |
| 2026-04-14 15:44 | 51.15309 | -0.17275 | 211 ft | 10 kts | 81° |
| 2026-04-14 15:44 | 51.15309 | -0.17258 | 208 ft | 0 kts | 89° |
| 2026-04-14 15:44 | 51.15282 | -0.17212 | 207 ft | 11 kts | 148° |
| 2026-04-14 15:45 | 51.15258 | -0.17106 | 207 ft | 13 kts | 81° |
| 2026-04-14 15:45 | 51.15281 | -0.16945 | 205 ft | 17 kts | 77° |
| 2026-04-14 15:45 | 51.15276 | -0.16828 | 207 ft | 0 kts | 134° |
| 2026-04-14 15:46 | 51.15264 | -0.16818 | 217 ft | 5 kts | 154° |
| 2026-04-14 15:46 | 51.15194 | -0.16793 | 207 ft | 15 kts | 167° |
| 2026-04-14 15:46 | 51.15111 | -0.16862 | 210 ft | 17 kts | 251° |
| 2026-04-14 15:46 | 51.15059 | -0.17219 | 204 ft | 72 kts | 257° |
| 2026-04-14 15:47 | 51.14884 | -0.18469 | 211 ft | 154 kts | 257° |
| 2026-04-14 15:47 | 51.14638 | -0.20296 | 748 ft | 180 kts | 255° |
| 2026-04-14 15:47 | 51.14385 | -0.22351 | 1410 ft | 188 kts | 252° |
| 2026-04-14 15:47 | 51.14115 | -0.24392 | 1970 ft | 193 kts | 251° |
| 2026-04-14 15:48 | 51.13803 | -0.26581 | 2670 ft | 208 kts | 252° |
| 2026-04-14 15:48 | 51.13643 | -0.28902 | 3309 ft | 224 kts | 274° |
| 2026-04-14 15:48 | 51.14262 | -0.31206 | 3952 ft | 234 kts | 306° |